Time;durP1;ratioP1;P1;durP2;ratioP2;P2;SDS_P1;SDS_P2;PMS_P1;PMS_P2;Temp;Humidity;BMP_temperature;BMP_pressure;BME280_temperature;BME280_humidity;BME280_pressure;Samples;Min_cycle;Max_cycle;Signal;HPM_P1;HPM_P2
2022/12/02 00:00:26;;;;;;;104.13;46.50;;;6.80;99.90;;;;;;5035845;28;20032;-72
2022/12/02 00:02:55;;;;;;;107.40;46.33;;;6.80;99.90;;;;;;5035825;28;20022;-72
2022/12/02 00:05:28;;;;;;;109.22;45.70;;;6.80;99.90;;;;;;5035765;28;20033;-73
2022/12/02 00:07:57;;;;;;;104.70;45.85;;;6.90;99.90;;;;;;5035704;28;20030;-72
2022/12/02 00:10:30;;;;;;;99.35;44.78;;;6.90;99.90;;;;;;5035719;28;20454;-73
2022/12/02 00:13:00;;;;;;;;;;;6.90;99.90;;;;;;5036087;28;20036;-72
2022/12/02 00:15:41;;;;;;;93.00;42.97;;;6.90;99.90;;;;;;5035268;28;20349;-73
2022/12/02 00:18:08;;;;;;;91.00;42.65;;;7.00;99.40;;;;;;5035953;28;20029;-73
2022/12/02 00:20:34;;;;;;;92.47;43.28;;;6.90;99.10;;;;;;5034681;28;20029;-73
2022/12/02 00:22:59;;;;;;;93.68;43.20;;;6.80;99.20;;;;;;5035957;28;20088;-73
2022/12/02 00:25:25;;;;;;;90.57;43.10;;;6.80;99.30;;;;;;5035675;28;20112;-73
2022/12/02 00:27:51;;;;;;;85.00;42.30;;;6.70;99.20;;;;;;5035127;28;20026;-73
2022/12/02 00:30:16;;;;;;;90.55;41.38;;;6.70;99.20;;;;;;5035661;28;20465;-73
2022/12/02 00:32:42;;;;;;;87.75;40.38;;;6.70;99.30;;;;;;5034186;28;20028;-73
2022/12/02 00:35:08;;;;;;;87.60;40.13;;;6.70;99.40;;;;;;5035155;28;20052;-73
2022/12/02 00:37:33;;;;;;;83.30;40.33;;;6.80;99.20;;;;;;5035413;28;20098;-73
2022/12/02 00:39:59;;;;;;;85.18;40.20;;;6.80;98.70;;;;;;5034001;28;20112;-73
2022/12/02 00:42:24;;;;;;;83.72;39.45;;;6.80;98.80;;;;;;5035388;28;20060;-73
2022/12/02 00:47:34;;;;;;;83.28;40.72;;;6.90;98.70;;;;;;5033185;28;20394;-74
2022/12/02 00:50:00;;;;;;;80.93;39.97;;;6.90;98.50;;;;;;5035119;28;20049;-73
2022/12/02 00:52:25;;;;;;;80.30;39.15;;;6.90;98.50;;;;;;5034932;28;20029;-74
2022/12/02 00:54:51;;;;;;;82.72;38.75;;;6.90;98.40;;;;;;5034949;28;20057;-74
2022/12/02 00:57:16;;;;;;;76.20;37.65;;;6.80;98.40;;;;;;5033541;28;20029;-74
2022/12/02 00:59:42;;;;;;;75.60;39.20;;;6.90;98.30;;;;;;5034507;28;20108;-74
2022/12/02 01:02:08;;;;;;;76.47;37.72;;;6.90;98.00;;;;;;5033802;28;20473;-74
2022/12/02 01:04:33;;;;;;;81.47;39.13;;;7.00;98.10;;;;;;5034738;28;20545;-74
2022/12/02 01:06:59;;;;;;;81.88;40.17;;;7.00;97.90;;;;;;5033589;28;20038;-74
2022/12/02 01:09:25;;;;;;;82.63;38.75;;;7.10;97.70;;;;;;5034348;28;20037;-73
2022/12/02 01:11:50;;;;;;;75.60;37.92;;;7.00;97.70;;;;;;5033099;28;20065;-73
2022/12/02 01:14:16;;;;;;;79.78;39.03;;;7.10;97.80;;;;;;5034749;28;20116;-74
2022/12/02 01:16:41;;;;;;;82.60;39.83;;;7.20;97.70;;;;;;5033315;28;20529;-73
2022/12/02 01:19:07;;;;;;;77.70;37.63;;;7.10;97.50;;;;;;5033274;28;20389;-74
2022/12/02 01:21:33;;;;;;;76.95;39.05;;;7.00;97.60;;;;;;5034174;28;20041;-73
2022/12/02 01:23:58;;;;;;;75.10;38.40;;;7.00;97.50;;;;;;5034327;28;20061;-73
2022/12/02 01:26:24;;;;;;;80.15;39.30;;;6.80;97.70;;;;;;5033131;28;20385;-73
2022/12/02 01:28:49;;;;;;;84.68;40.17;;;6.80;97.90;;;;;;5034026;28;20030;-73
2022/12/02 01:31:15;;;;;;;77.60;38.80;;;6.70;97.80;;;;;;5033768;28;20128;-73
2022/12/02 01:33:41;;;;;;;79.60;39.00;;;6.60;98.10;;;;;;5034180;28;20082;-73
2022/12/02 01:36:07;;;;;;;76.65;37.97;;;6.60;98.30;;;;;;5032511;28;20175;-73
2022/12/02 01:38:33;;;;;;;83.88;39.70;;;6.60;98.20;;;;;;5033640;28;20444;-73
2022/12/02 01:40:59;;;;;;;83.35;40.67;;;6.50;98.20;;;;;;5033203;28;20454;-72
2022/12/02 01:43:26;;;;;;;81.40;39.38;;;6.50;98.40;;;;;;5033762;28;20021;-72
2022/12/02 01:45:52;;;;;;;82.07;40.75;;;6.50;98.40;;;;;;5032677;28;20084;-73
2022/12/02 01:48:19;;;;;;;76.95;38.03;;;6.40;98.60;;;;;;5033478;28;20057;-73
2022/12/02 01:50:45;;;;;;;75.40;37.25;;;6.40;98.70;;;;;;5016181;28;20116;-73
2022/12/02 01:53:11;;;;;;;74.90;37.17;;;6.40;98.80;;;;;;5033788;28;20056;-73
2022/12/02 01:55:37;;;;;;;73.18;35.50;;;6.30;98.90;;;;;;5032684;28;20466;-73
2022/12/02 01:58:03;;;;;;;76.55;38.33;;;6.30;99.00;;;;;;5034196;28;20053;-73
2022/12/02 02:00:29;;;;;;;81.63;39.03;;;6.40;99.00;;;;;;5034155;28;20061;-73
2022/12/02 02:02:55;;;;;;;75.35;38.60;;;6.50;99.00;;;;;;5033079;28;20477;-73
2022/12/02 02:05:24;;;;;;;76.65;38.03;;;6.40;98.60;;;;;;5032555;28;20069;-73
2022/12/02 02:07:52;;;;;;;82.75;39.33;;;6.40;98.90;;;;;;5033894;28;20032;-73
2022/12/02 02:10:19;;;;;;;76.93;37.25;;;6.30;98.90;;;;;;5033389;28;20044;-73
2022/12/02 02:12:46;;;;;;;81.90;38.33;;;6.40;99.00;;;;;;5016328;28;20068;-73
2022/12/02 02:15:14;;;;;;;71.07;36.15;;;6.30;99.00;;;;;;5033710;28;20037;-73
2022/12/02 02:17:40;;;;;;;77.15;37.25;;;6.40;99.10;;;;;;5032886;28;20052;-73
2022/12/02 02:20:09;;;;;;;80.25;37.78;;;6.20;98.80;;;;;;5039237;28;20057;-73
2022/12/02 02:23:01;;;;;;;79.57;37.78;;;6.10;99.30;;;;;;5039758;28;20037;-72
2022/12/02 02:25:26;;;;;;;78.53;36.63;;;6.20;99.20;;;;;;5039061;28;20077;-72
2022/12/02 02:27:58;;;;;;;72.53;34.70;;;5.90;99.30;;;;;;5039172;28;20057;-72
2022/12/02 02:30:26;;;;;;;72.93;34.38;;;5.80;99.60;;;;;;5021549;28;20107;-72
2022/12/02 02:32:52;;;;;;;72.03;34.08;;;5.80;99.70;;;;;;5021524;28;20025;-72
2022/12/02 02:35:19;;;;;;;76.07;34.00;;;5.80;99.90;;;;;;5039090;28;20041;-72
2022/12/02 02:37:47;;;;;;;73.15;34.88;;;6.00;99.90;;;;;;5038922;28;20389;-72
2022/12/02 02:40:15;;;;;;;78.72;37.40;;;6.10;99.70;;;;;;5045706;28;20116;-72
2022/12/02 02:42:46;;;;;;;83.18;35.35;;;6.10;99.30;;;;;;5043962;28;20037;-72
2022/12/02 02:45:11;;;;;;;78.55;36.80;;;5.90;99.40;;;;;;5040299;28;20037;-72
2022/12/02 02:47:37;;;;;;;75.10;35.10;;;6.00;99.60;;;;;;5040181;28;20033;-71
2022/12/02 02:50:04;;;;;;;79.90;33.70;;;5.80;99.70;;;;;;5039714;28;20029;-72
2022/12/02 02:52:30;;;;;;;70.25;31.60;;;5.90;99.80;;;;;;5021439;28;20062;-72
2022/12/02 02:54:55;;;;;;;74.20;34.20;;;6.00;99.60;;;;;;5039345;28;20080;-72
2022/12/02 02:57:21;;;;;;;71.88;31.83;;;6.10;99.30;;;;;;5020978;28;20026;-72
2022/12/02 02:59:51;;;;;;;69.53;32.20;;;6.20;99.00;;;;;;5038856;28;20033;-72
2022/12/02 03:02:16;;;;;;;66.28;30.95;;;6.20;98.90;;;;;;5038298;28;20048;-72
2022/12/02 03:04:43;;;;;;;67.50;31.08;;;6.20;99.00;;;;;;5020874;28;20123;-72
2022/12/02 03:07:09;;;;;;;59.90;30.38;;;6.20;98.90;;;;;;5037002;28;20030;-72
2022/12/02 03:09:35;;;;;;;75.60;31.52;;;6.20;99.00;;;;;;5037304;28;20038;-72
2022/12/02 03:12:01;;;;;;;70.97;31.48;;;6.30;99.00;;;;;;5038454;28;20060;-72
2022/12/02 03:14:27;;;;;;;75.07;31.95;;;6.30;98.70;;;;;;5038554;28;20037;-72
2022/12/02 03:16:53;;;;;;;70.32;30.15;;;6.20;98.60;;;;;;5020814;28;20033;-72
2022/12/02 03:19:19;;;;;;;68.45;30.17;;;6.10;98.80;;;;;;5038176;28;20111;-72
2022/12/02 03:21:46;;;;;;;66.40;29.33;;;6.10;99.00;;;;;;5038725;28;20034;-73
2022/12/02 03:24:12;;;;;;;68.35;31.00;;;6.20;98.90;;;;;;5037265;28;20038;-73
2022/12/02 03:26:39;;;;;;;65.90;29.65;;;6.20;98.70;;;;;;5020570;28;20477;-74
2022/12/02 03:29:06;;;;;;;66.40;30.17;;;6.20;98.60;;;;;;5021229;28;20029;-73
2022/12/02 03:31:33;;;;;;;65.40;29.80;;;6.20;98.50;;;;;;5034803;28;20029;-73
2022/12/02 03:33:59;;;;;;;60.13;25.95;;;6.20;98.20;;;;;;5033853;28;20026;-73
2022/12/02 03:36:25;;;;;;;64.95;29.85;;;6.10;98.50;;;;;;5035197;28;20032;-73
2022/12/02 03:38:51;;;;;;;67.38;29.85;;;6.20;98.60;;;;;;5034043;28;20021;-72
2022/12/02 03:41:18;;;;;;;63.97;28.88;;;6.10;98.50;;;;;;5035440;28;20199;-73
2022/12/02 03:43:44;;;;;;;66.63;28.50;;;6.10;98.60;;;;;;5035180;28;20034;-72
2022/12/02 03:46:10;;;;;;;68.18;29.33;;;6.10;98.50;;;;;;5035345;28;20099;-72
2022/12/02 03:48:37;;;;;;;68.72;29.45;;;6.00;98.60;;;;;;5030446;28;20069;-72
2022/12/02 03:51:03;;;;;;;64.15;28.73;;;6.10;98.60;;;;;;5015001;28;20435;-73
2022/12/02 03:53:29;;;;;;;63.60;30.20;;;6.00;98.70;;;;;;4997661;28;20068;-73
2022/12/02 03:55:55;;;;;;;67.30;30.33;;;6.00;98.90;;;;;;5015078;28;20041;-73
2022/12/02 03:58:35;;;;;;;66.55;30.70;;;6.00;99.00;;;;;;5013969;28;20037;-73
2022/12/02 04:01:01;;;;;;;67.70;29.40;;;6.00;99.10;;;;;;5014884;28;20053;-72
2022/12/02 04:03:26;;;;;;;68.53;30.70;;;6.10;99.20;;;;;;5015114;28;20162;-73
2022/12/02 04:05:53;;;;;;;67.93;30.50;;;6.20;99.00;;;;;;5015154;28;20034;-72
2022/12/02 04:08:18;;;;;;;65.10;29.65;;;6.10;98.80;;;;;;5015080;28;20030;-73
2022/12/02 04:10:44;;;;;;;66.40;28.85;;;6.00;98.90;;;;;;5014677;28;20022;-73
2022/12/02 04:13:09;;;;;;;63.55;28.25;;;6.00;99.00;;;;;;5014820;28;20168;-72
2022/12/02 04:15:35;;;;;;;67.50;29.08;;;6.10;99.00;;;;;;5013623;28;20482;-73
2022/12/02 04:18:01;;;;;;;58.97;26.77;;;6.10;99.10;;;;;;5013588;28;20478;-73
2022/12/02 04:20:26;;;;;;;59.65;26.63;;;5.90;98.80;;;;;;5016208;28;20442;-72
2022/12/02 04:22:52;;;;;;;53.58;25.13;;;5.80;99.00;;;;;;5016227;28;20062;-72
2022/12/02 04:25:18;;;;;;;57.40;24.88;;;5.80;99.30;;;;;;5019754;28;20113;-72
2022/12/02 04:27:43;;;;;;;52.85;22.42;;;5.80;99.30;;;;;;5015673;28;20041;-73
2022/12/02 04:30:09;;;;;;;51.75;23.85;;;6.00;99.30;;;;;;4997698;28;20377;-72
2022/12/02 04:32:35;;;;;;;51.15;21.88;;;6.10;98.90;;;;;;5013278;28;20471;-72
2022/12/02 04:35:00;;;;;;;52.22;22.00;;;6.10;98.80;;;;;;5013062;28;20092;-72
2022/12/02 04:37:26;;;;;;;49.78;22.08;;;6.10;98.40;;;;;;4997136;28;20084;-72
2022/12/02 04:39:52;;;;;;;45.22;21.48;;;6.10;98.40;;;;;;5029563;28;20109;-72
2022/12/02 04:42:17;;;;;;;44.67;20.90;;;6.10;98.40;;;;;;5013976;28;20454;-72
2022/12/02 04:44:43;;;;;;;46.13;21.55;;;6.10;98.20;;;;;;5013623;28;20366;-72
2022/12/02 04:47:09;;;;;;;45.47;21.50;;;6.00;98.20;;;;;;5013971;28;20471;-72
2022/12/02 04:49:34;;;;;;;46.67;20.33;;;5.80;98.60;;;;;;5028965;28;20065;-73
2022/12/02 04:52:00;;;;;;;44.72;20.52;;;5.80;98.80;;;;;;5013391;28;20466;-72
2022/12/02 04:54:25;;;;;;;42.00;19.73;;;5.80;99.00;;;;;;5013750;28;20121;-72
2022/12/02 04:56:51;;;;;;;42.22;19.35;;;5.80;98.80;;;;;;5012244;28;20117;-73
2022/12/02 04:59:17;;;;;;;43.25;20.08;;;5.80;98.80;;;;;;5014095;28;20265;-72
2022/12/02 05:01:42;;;;;;;43.65;20.50;;;5.90;98.70;;;;;;5013987;28;20040;-72
2022/12/02 05:04:08;;;;;;;43.60;20.15;;;6.00;98.40;;;;;;5013801;28;20042;-72
2022/12/02 05:06:33;;;;;;;41.50;18.75;;;6.00;98.40;;;;;;5013522;28;20061;-73
2022/12/02 05:08:59;;;;;;;41.50;19.45;;;6.00;98.40;;;;;;4996310;28;20053;-72
2022/12/02 05:11:25;;;;;;;42.22;19.90;;;5.90;98.20;;;;;;5012383;28;20095;-72
2022/12/02 05:13:50;;;;;;;41.63;19.75;;;5.80;98.00;;;;;;4995941;28;20133;-72
2022/12/02 05:16:16;;;;;;;40.00;19.15;;;5.60;98.30;;;;;;5013394;28;20042;-72
2022/12/02 05:18:41;;;;;;;42.55;20.05;;;5.70;98.60;;;;;;5012217;28;20116;-72
2022/12/02 05:21:07;;;;;;;49.35;21.48;;;5.50;98.60;;;;;;5013439;28;20033;-72
2022/12/02 05:23:33;;;;;;;42.22;20.35;;;5.40;98.70;;;;;;5012389;28;20425;-72
2022/12/02 05:25:58;;;;;;;42.28;20.17;;;5.20;99.00;;;;;;4996099;28;20052;-72
2022/12/02 05:28:24;;;;;;;43.92;20.17;;;5.10;99.20;;;;;;5013876;28;20439;-72
2022/12/02 05:30:49;;;;;;;42.75;21.52;;;5.00;99.60;;;;;;5012537;28;20041;-73
2022/12/02 05:33:15;;;;;;;42.72;19.65;;;5.00;99.80;;;;;;4996051;28;20037;-73
2022/12/02 05:35:41;;;;;;;43.50;20.42;;;5.10;99.80;;;;;;5013970;28;20437;-73
2022/12/02 05:38:07;;;;;;;41.75;20.30;;;5.30;99.70;;;;;;5012158;28;20038;-72
2022/12/02 05:40:33;;;;;;;40.28;19.77;;;5.50;99.80;;;;;;5013601;28;20048;-73
2022/12/02 05:43:21;;;;;;;44.28;20.77;;;5.60;99.20;;;;;;5013560;28;20064;-72
2022/12/02 05:45:47;;;;;;;40.50;20.27;;;5.60;98.80;;;;;;5013403;28;20048;-72
2022/12/02 05:48:15;;;;;;;43.80;20.23;;;5.70;98.50;;;;;;5017809;28;20062;-72
2022/12/02 05:50:42;;;;;;;43.47;21.10;;;5.50;98.60;;;;;;5032960;28;20032;-72
2022/12/02 05:53:26;;;;;;;43.92;21.02;;;5.50;98.80;;;;;;5032873;28;20025;-72
2022/12/02 05:55:54;;;;;;;42.35;21.05;;;5.40;98.90;;;;;;5032696;28;20095;-72
2022/12/02 05:58:21;;;;;;;44.03;21.50;;;5.50;99.10;;;;;;5033255;28;20091;-72
2022/12/02 06:00:53;;;;;;;45.65;22.75;;;5.60;98.90;;;;;;5017535;28;20022;-72
2022/12/02 06:03:20;;;;;;;44.45;20.77;;;5.60;98.90;;;;;;5039865;28;20089;-72
2022/12/02 06:05:47;;;;;;;46.47;22.13;;;5.70;98.90;;;;;;5040782;28;20116;-72
2022/12/02 06:08:21;;;;;;;43.30;21.45;;;5.50;98.80;;;;;;5034592;28;20125;-72
2022/12/02 06:10:50;;;;;;;48.70;23.85;;;5.50;99.30;;;;;;5033269;28;20403;-72
2022/12/02 06:13:24;;;;;;;48.25;22.85;;;5.50;98.90;;;;;;5033196;28;20033;-72
2022/12/02 06:15:50;;;;;;;49.90;22.98;;;5.30;99.20;;;;;;5032697;28;20060;-72
2022/12/02 06:18:22;;;;;;;47.83;22.95;;;5.20;99.60;;;;;;5032563;28;20395;-72
2022/12/02 06:20:54;;;;;;;43.80;21.48;;;5.20;99.80;;;;;;5032827;28;20084;-72
2022/12/02 06:23:21;;;;;;;46.70;23.10;;;5.20;99.90;;;;;;5033121;28;20117;-73
2022/12/02 06:25:49;;;;;;;44.70;22.27;;;5.20;99.90;;;;;;5032864;28;20032;-72
2022/12/02 06:28:40;;;;;;;48.42;23.98;;;5.20;99.90;;;;;;5032565;28;20049;-72
2022/12/02 06:31:39;;;;;;;47.50;23.50;;;5.10;99.90;;;;;;5032452;28;20022;-72
2022/12/02 06:34:32;;;;;;;46.45;22.52;;;5.00;99.90;;;;;;5028413;28;20128;-72
2022/12/02 06:37:07;;;;;;;42.67;20.83;;;5.00;99.90;;;;;;5014679;28;20025;-73
2022/12/02 06:39:33;;;;;;;49.53;22.65;;;5.10;99.90;;;;;;5015138;28;20082;-71
2022/12/02 06:42:07;;;;;;;43.88;21.40;;;5.10;99.90;;;;;;5032226;28;20385;-72
2022/12/02 06:47:36;;;;;;;48.08;23.02;;;5.00;99.90;;;;;;5032410;28;20505;-71
2022/12/02 06:50:04;;;;;;;41.13;21.38;;;5.20;99.90;;;;;;5027906;28;20050;-71
2022/12/02 06:52:37;;;;;;;40.25;21.00;;;5.20;99.90;;;;;;5030940;28;20474;-71
2022/12/02 06:55:18;;;;;;;40.97;20.85;;;5.40;99.90;;;;;;5032668;28;20029;-71
2022/12/02 06:57:44;;;;;;;48.95;22.67;;;5.40;99.90;;;;;;5032907;28;20036;-73
2022/12/02 07:00:11;;;;;;;44.92;21.65;;;5.40;99.90;;;;;;5032199;28;20465;-74
2022/12/02 07:02:39;;;;;;;46.60;23.30;;;5.40;99.90;;;;;;5032301;28;20041;-72
2022/12/02 07:05:05;;;;;;;42.58;21.75;;;5.30;99.90;;;;;;5030781;28;20084;-72
2022/12/02 07:07:31;;;;;;;45.38;23.25;;;5.40;99.90;;;;;;5035703;28;20465;-72
2022/12/02 07:10:05;;;;;;;44.90;23.42;;;5.40;99.90;;;;;;5035704;28;20038;-73
2022/12/02 07:12:37;;;;;;;49.80;24.58;;;5.30;99.90;;;;;;5017919;28;20064;-72
2022/12/02 07:15:28;;;;;;;51.03;24.15;;;5.30;99.90;;;;;;5018142;28;20037;-71
2022/12/02 07:18:08;;;;;;;46.28;23.95;;;5.10;99.90;;;;;;5036151;28;20026;-71
2022/12/02 07:20:36;;;;;;;46.55;22.55;;;5.10;99.90;;;;;;5035987;28;20032;-71
2022/12/02 07:23:22;;;;;;;46.67;22.10;;;5.00;99.90;;;;;;5035710;28;20025;-72
2022/12/02 07:25:51;;;;;;;50.65;23.95;;;4.90;99.90;;;;;;5035556;28;20138;-72
2022/12/02 07:28:42;;;;;;;48.30;24.60;;;4.90;99.90;;;;;;5035818;28;20446;-72
2022/12/02 07:31:37;;;;;;;50.45;24.58;;;4.90;99.90;;;;;;5018743;28;20048;-73
2022/12/02 07:34:02;;;;;;;47.45;22.25;;;4.90;99.90;;;;;;5022778;28;20041;-74
2022/12/02 07:36:28;;;;;;;44.72;22.17;;;4.80;99.90;;;;;;5018422;28;20053;-74
2022/12/02 07:38:54;;;;;;;48.75;23.90;;;4.90;99.90;;;;;;5035619;28;20029;-74
2022/12/02 07:41:19;;;;;;;42.08;21.73;;;4.90;99.90;;;;;;5018631;28;20489;-72
2022/12/02 07:43:45;;;;;;;52.70;24.98;;;5.10;99.90;;;;;;5037401;28;20091;-72
2022/12/02 07:46:10;;;;;;;46.85;22.83;;;5.20;99.90;;;;;;5038429;28;20132;-74
2022/12/02 07:48:36;;;;;;;46.58;22.92;;;5.10;99.90;;;;;;5034682;28;20049;-72
2022/12/02 07:51:02;;;;;;;44.92;20.70;;;5.20;99.90;;;;;;5036515;28;20056;-73
2022/12/02 07:53:27;;;;;;;52.28;23.23;;;5.10;99.90;;;;;;5035961;28;20363;-73
2022/12/02 07:55:53;;;;;;;48.60;21.38;;;5.10;99.90;;;;;;5034123;28;20401;-72
2022/12/02 07:58:19;;;;;;;53.30;23.23;;;5.00;99.90;;;;;;5017263;28;20112;-74
2022/12/02 08:00:44;;;;;;;47.97;21.77;;;4.90;99.90;;;;;;5017602;28;20034;-72
2022/12/02 08:03:10;;;;;;;49.33;23.10;;;4.80;99.90;;;;;;5034930;28;20056;-71
2022/12/02 08:05:35;;;;;;;56.50;23.98;;;4.90;99.90;;;;;;5016892;28;20171;-71
2022/12/02 08:08:01;;;;;;;55.30;23.80;;;5.00;99.90;;;;;;5016929;28;20409;-71
2022/12/02 08:10:27;;;;;;;63.58;24.02;;;5.00;99.90;;;;;;5033342;28;20037;-71
2022/12/02 08:12:52;;;;;;;56.78;23.88;;;4.90;99.90;;;;;;5033167;28;20057;-71
2022/12/02 08:15:18;;;;;;;40.78;19.08;;;4.90;99.90;;;;;;5034546;28;20076;-71
2022/12/02 08:17:43;;;;;;;52.25;23.80;;;5.00;99.90;;;;;;5033617;28;20026;-71
2022/12/02 08:20:15;;;;;;;55.20;24.15;;;5.20;99.90;;;;;;5034631;28;20054;-71
2022/12/02 08:22:41;;;;;;;51.97;21.85;;;5.30;99.90;;;;;;5034349;28;20026;-71
2022/12/02 08:25:07;;;;;;;50.78;23.95;;;5.40;99.90;;;;;;5034405;28;20386;-71
2022/12/02 08:27:33;;;;;;;57.85;25.35;;;5.50;99.90;;;;;;5034255;28;20034;-71
2022/12/02 08:30:03;;;;;;;61.92;24.58;;;5.20;99.90;;;;;;5033668;28;20053;-71
2022/12/02 08:32:29;;;;;;;57.33;24.88;;;5.10;99.90;;;;;;5035001;28;20049;-71
2022/12/02 08:34:55;;;;;;;63.95;25.67;;;5.10;99.90;;;;;;5032530;28;20061;-70
2022/12/02 08:37:20;;;;;;;57.03;24.55;;;5.00;99.90;;;;;;5033864;28;20038;-71
2022/12/02 08:39:46;;;;;;;62.65;26.10;;;4.90;99.90;;;;;;5033949;28;20029;-70
2022/12/02 08:42:12;;;;;;;61.95;25.80;;;4.90;99.90;;;;;;5032391;28;20033;-70
2022/12/02 08:44:37;;;;;;;64.22;26.40;;;4.90;99.90;;;;;;5032754;28;20114;-70
2022/12/02 08:47:03;;;;;;;53.83;23.65;;;4.90;99.90;;;;;;5016414;28;20115;-70
2022/12/02 08:49:29;;;;;;;58.97;25.83;;;4.90;99.90;;;;;;5012345;28;20046;-71
2022/12/02 08:51:54;;;;;;;58.88;25.77;;;5.00;99.90;;;;;;5014467;28;20490;-71
2022/12/02 08:54:20;;;;;;;59.63;26.67;;;5.00;99.90;;;;;;5012616;28;20355;-72
2022/12/02 08:56:46;;;;;;;60.13;25.08;;;5.10;99.90;;;;;;5014377;28;20180;-71
2022/12/02 08:59:12;;;;;;;60.25;26.23;;;5.10;99.90;;;;;;4996592;28;20485;-71
2022/12/02 09:01:37;;;;;;;62.92;27.35;;;5.10;99.90;;;;;;5014142;28;20104;-70
2022/12/02 09:04:03;;;;;;;55.45;22.92;;;5.20;99.90;;;;;;5013983;28;20050;-69
2022/12/02 09:06:29;;;;;;;59.50;24.40;;;5.20;99.90;;;;;;5014134;28;20459;-70
2022/12/02 09:08:55;;;;;;;55.03;25.02;;;5.20;99.90;;;;;;5014108;28;20061;-69
2022/12/02 09:11:20;;;;;;;56.40;23.85;;;5.30;99.90;;;;;;5013988;28;20487;-70
2022/12/02 09:13:46;;;;;;;60.75;24.92;;;5.40;99.90;;;;;;5014142;28;20053;-69
2022/12/02 09:16:12;;;;;;;60.10;25.52;;;5.50;99.90;;;;;;5013437;28;20434;-69
2022/12/02 09:18:37;;;;;;;54.85;23.85;;;5.40;99.90;;;;;;5013387;28;20033;-69
2022/12/02 09:21:03;;;;;;;57.70;24.88;;;5.40;99.90;;;;;;5030442;28;20505;-70
2022/12/02 09:23:29;;;;;;;61.35;25.55;;;5.40;99.90;;;;;;5015461;28;20033;-69
2022/12/02 09:25:55;;;;;;;56.60;23.65;;;5.30;99.90;;;;;;5014334;28;20490;-70
2022/12/02 09:28:22;;;;;;;58.47;25.27;;;5.30;99.90;;;;;;5029018;28;20029;-70
2022/12/02 09:30:48;;;;;;;58.53;23.58;;;5.30;99.90;;;;;;5015019;28;20033;-71
2022/12/02 09:33:14;;;;;;;56.97;23.65;;;5.30;99.90;;;;;;5029294;28;20470;-69
2022/12/02 09:35:39;;;;;;;61.65;24.65;;;5.40;99.90;;;;;;5014685;28;20475;-72
2022/12/02 09:38:05;;;;;;;56.53;24.35;;;5.20;99.90;;;;;;5030098;28;20429;-72
2022/12/02 09:40:32;;;;;;;51.67;24.10;;;5.10;99.90;;;;;;5013317;28;20368;-73
2022/12/02 09:42:58;;;;;;;54.92;24.08;;;5.00;99.90;;;;;;5029647;28;20065;-69
2022/12/02 09:45:24;;;;;;;53.45;22.63;;;5.00;99.90;;;;;;5013961;28;20033;-70
2022/12/02 09:47:49;;;;;;;51.72;23.73;;;5.10;99.90;;;;;;5013314;28;20528;-70
2022/12/02 09:50:16;;;;;;;51.45;22.17;;;5.20;99.90;;;;;;5020026;28;20084;-69
2022/12/02 09:52:42;;;;;;;52.95;24.80;;;5.40;99.90;;;;;;5032965;28;20091;-70
2022/12/02 09:55:14;;;;;;;57.85;24.45;;;5.50;99.90;;;;;;5031505;28;20125;-69
2022/12/02 09:57:40;;;;;;;60.22;24.83;;;5.50;99.90;;;;;;5032782;28;20028;-70
2022/12/02 10:00:11;;;;;;;53.35;24.67;;;5.40;99.90;;;;;;5031639;28;20034;-70
2022/12/02 10:02:40;;;;;;;61.58;26.15;;;5.20;99.90;;;;;;5032991;28;20029;-70
2022/12/02 10:05:16;;;;;;;59.85;24.80;;;5.20;99.90;;;;;;5032516;28;20489;-69
2022/12/02 10:07:43;;;;;;;58.33;26.25;;;5.10;99.90;;;;;;5032595;28;20029;-73
2022/12/02 10:10:21;;;;;;;68.43;27.67;;;5.20;99.90;;;;;;5032372;28;20034;-74
2022/12/02 10:12:47;;;;;;;55.50;23.83;;;5.20;99.90;;;;;;5032848;28;20047;-71
2022/12/02 10:15:20;;;;;;;58.47;25.65;;;5.20;99.90;;;;;;5032420;28;20029;-71
2022/12/02 10:17:46;;;;;;;53.53;23.00;;;5.20;99.90;;;;;;5031382;28;20022;-71
2022/12/02 10:20:19;;;;;;;52.33;23.02;;;5.20;99.90;;;;;;5032378;28;20114;-72
2022/12/02 10:23:06;;;;;;;56.20;24.17;;;5.30;99.90;;;;;;5033007;28;20033;-73
2022/12/02 10:25:32;;;;;;;55.38;24.08;;;5.20;99.80;;;;;;5031510;28;20485;-72
2022/12/02 10:27:58;;;;;;;58.22;25.13;;;5.20;99.90;;;;;;5032392;28;20033;-73
2022/12/02 10:30:25;;;;;;;57.60;24.75;;;5.20;99.90;;;;;;5032419;28;20030;-72
2022/12/02 10:33:05;;;;;;;51.40;22.55;;;5.20;99.90;;;;;;5032796;28;20034;-73
2022/12/02 10:35:52;;;;;;;60.78;24.98;;;5.30;99.90;;;;;;5032277;28;20436;-73
2022/12/02 10:38:28;;;;;;;60.60;24.17;;;5.30;99.70;;;;;;5014631;28;20041;-73
2022/12/02 10:41:14;;;;;;;60.38;25.08;;;5.40;99.90;;;;;;5035036;28;20025;-72
2022/12/02 10:43:44;;;;;;;59.33;24.40;;;5.30;99.70;;;;;;5036538;28;20033;-73
2022/12/02 10:46:13;;;;;;;51.47;23.20;;;5.20;99.70;;;;;;5019168;28;20347;-72
2022/12/02 10:48:39;;;;;;;58.17;23.77;;;5.30;99.90;;;;;;5035187;28;20112;-73
2022/12/02 10:51:07;;;;;;;50.78;22.77;;;5.50;99.90;;;;;;5036080;28;20054;-73
2022/12/02 10:53:33;;;;;;;49.33;21.60;;;5.60;99.80;;;;;;5037013;28;20038;-73
2022/12/02 10:55:59;;;;;;;48.33;20.98;;;5.70;99.70;;;;;;5037023;28;20041;-71
2022/12/02 10:58:33;;;;;;;53.28;21.98;;;5.90;99.70;;;;;;5035861;28;20144;-73
2022/12/02 11:01:00;;;;;;;50.58;20.98;;;5.90;98.60;;;;;;5018916;28;20106;-72
2022/12/02 11:03:26;;;;;;;57.42;21.50;;;5.80;98.70;;;;;;5036383;28;20030;-71
2022/12/02 11:05:52;;;;;;;48.47;20.48;;;5.70;98.90;;;;;;5035466;28;20124;-72
2022/12/02 11:08:19;;;;;;;51.25;19.83;;;5.70;98.60;;;;;;5018166;28;20450;-72
2022/12/02 11:10:47;;;;;;;54.60;21.98;;;5.60;98.50;;;;;;5034602;28;20029;-71
2022/12/02 11:13:12;;;;;;;48.15;20.13;;;5.60;98.40;;;;;;5035718;28;20047;-72
2022/12/02 11:15:50;;;;;;;53.72;21.88;;;5.50;99.00;;;;;;5034356;28;20029;-72
2022/12/02 11:18:22;;;;;;;50.08;21.17;;;5.50;98.40;;;;;;5017856;28;20021;-74
2022/12/02 11:20:53;;;;;;;46.88;20.02;;;5.50;98.50;;;;;;5034101;28;20422;-75
2022/12/02 11:23:30;;;;;;;50.63;19.88;;;5.40;98.00;;;;;;5035551;28;20145;-72
2022/12/02 11:26:14;;;;;;;48.83;19.85;;;5.30;98.20;;;;;;5017691;28;20037;-72
2022/12/02 11:29:16;;;;;;;51.38;20.77;;;5.00;98.50;;;;;;5035539;28;20048;-73
2022/12/02 11:31:58;;;;;;;48.30;20.58;;;5.20;98.70;;;;;;5035929;28;20045;-71
2022/12/02 11:34:41;;;;;;;54.50;20.70;;;5.00;98.60;;;;;;5035657;28;20025;-72
2022/12/02 11:37:28;;;;;;;60.53;21.60;;;5.00;98.80;;;;;;5034419;28;20346;-72
2022/12/02 11:39:56;;;;;;;52.15;20.88;;;5.00;98.80;;;;;;5035231;28;20124;-74
2022/12/02 11:42:29;;;;;;;49.97;20.15;;;4.80;99.00;;;;;;5035471;28;20026;-73
2022/12/02 11:45:11;;;;;;;52.42;20.15;;;4.90;99.20;;;;;;5034428;28;20421;-74
2022/12/02 11:47:37;;;;;;;45.90;19.05;;;4.90;99.00;;;;;;5017659;28;20040;-74
2022/12/02 11:50:15;;;;;;;57.70;22.20;;;4.90;99.10;;;;;;5013746;28;20053;-74
2022/12/02 11:52:53;;;;;;;58.47;22.23;;;5.00;99.00;;;;;;5029738;28;20084;-75
2022/12/02 11:55:40;;;;;;;55.85;21.63;;;5.10;99.00;;;;;;5014269;28;20046;-72
2022/12/02 11:58:27;;;;;;;50.67;19.13;;;5.00;99.00;;;;;;5015524;28;20087;-71
2022/12/02 12:01:06;;;;;;;58.72;20.35;;;5.00;99.20;;;;;;5030782;28;20343;-70
2022/12/02 12:03:32;;;;;;;55.00;20.70;;;5.20;99.20;;;;;;5015426;28;20048;-72
2022/12/02 12:06:09;;;;;;;53.67;20.13;;;5.20;98.80;;;;;;5015179;28;20049;-72
2022/12/02 12:08:37;;;;;;;57.72;20.90;;;5.20;98.80;;;;;;5014964;28;20113;-72
2022/12/02 12:11:25;;;;;;;49.10;18.58;;;5.10;98.50;;;;;;5015517;28;20032;-72
2022/12/02 12:14:06;;;;;;;51.63;21.33;;;5.20;99.20;;;;;;5014700;28;20052;-71
2022/12/02 12:16:34;;;;;;;46.60;18.42;;;5.40;98.90;;;;;;5014864;28;20030;-72
2022/12/02 12:19:21;;;;;;;46.47;19.50;;;5.50;98.80;;;;;;5013499;28;20026;-72
2022/12/02 12:21:55;;;;;;;42.15;17.27;;;5.50;98.10;;;;;;5003980;28;20125;-72
2022/12/02 12:24:22;;;;;;;53.15;20.08;;;5.60;97.90;;;;;;5015306;28;20022;-72
2022/12/02 12:26:56;;;;;;;46.00;18.75;;;5.80;98.00;;;;;;5014696;28;20351;-72
2022/12/02 12:29:25;;;;;;;45.15;18.10;;;5.70;97.60;;;;;;5029971;28;20044;-72
2022/12/02 12:31:50;;;;;;;41.80;17.25;;;5.70;97.70;;;;;;5015160;28;20116;-72
2022/12/02 12:34:16;;;;;;;48.55;19.40;;;5.80;97.30;;;;;;5015730;28;20486;-73
2022/12/02 12:36:43;;;;;;;41.22;16.60;;;5.70;97.40;;;;;;5014614;28;20038;-72
2022/12/02 12:39:09;;;;;;;47.50;19.10;;;5.70;97.40;;;;;;5015372;28;20511;-72
2022/12/02 12:41:36;;;;;;;41.03;16.58;;;5.70;97.60;;;;;;5030049;28;20149;-72
2022/12/02 12:44:02;;;;;;;49.45;19.70;;;5.80;97.60;;;;;;5013481;28;20026;-73
2022/12/02 12:46:27;;;;;;;48.00;19.00;;;5.80;97.40;;;;;;5014160;28;20033;-71
2022/12/02 12:48:53;;;;;;;47.13;18.30;;;5.80;97.70;;;;;;4996525;28;20034;-72
2022/12/02 12:51:19;;;;;;;40.65;16.27;;;5.90;97.80;;;;;;4994453;28;20073;-72